لومه, توگو

08:29 PM GMT on مارس 02, 2015 (GMT +0000)
Tokoin | Change Station
CLOSE
Current Station
Airport
Location: Lome,
Elevation: 82 ft
Nearby Weather Stations

Elev 82 ft 6.17 °N, 1.25 °E | Updated 29 minutes ago

Partly Cloudy
ابرهاى پراكنده
84 °F
Feels Like 96 °F
N
12
باد متغير باد from SSW

امروز
High -- | Low -- °F
--% Chance of Precip.
دیروز
High -- | Low -- °F
Precip. -- در
6:07 AM 6:07 PM
Waxing Gibbous, 93% visible
فشار 29.83 در
ديد 6.2 مايل، ميل (در برابر كيلومتر
ابری Few 1400 ft
شاخص گرما 96 °F
قطره شبنم 79 °F
رطوبت 84%
بارش باران 0.00 در
برف عمیق Not available.
مادون قرمز 0 out of 12
Pollen Not available.
تمیزی هوا Not available.
Flu Activity Not available.
METAR DXXX 022000Z 20010KT 9999 FEW014 29/26 Q1010 NOSIG

More Conditions Fewer Conditions

فشار 29.83 در
ديد 6.2 مايل، ميل (در برابر كيلومتر
ابری Few 1400 ft
شاخص گرما 96 °F
قطره شبنم 79 °F
رطوبت 84%
بارش باران 0.00 در
برف عمیق Not available.
مادون قرمز 0 out of 12
Pollen Not available.
تمیزی هوا Not available.
Flu Activity Not available.
METAR DXXX 022000Z 20010KT 9999 FEW014 29/26 Q1010 NOSIG

More Conditions Fewer Conditions

10-Day Weather Forecast

Almanac

ستاره شناسی

Mar. 02, 2015 Rise Set
وقت حقیقی
تاریک و روشن اجتماعی
تاریک روشن دریایی
شفق و فلق نجومی
ماه
میزان روشنایی روز
طول روز
Tomorrow will be .
, % of the Moon is Illuminated

Today's Extremes

Country Highs Country Lows

Community

WunderPhotos

Upload Photos

1,801,938 photos uploaded!

WunderBlogs® & News

Nearby

تمیزی هوا

  تمیزی هوا AQ Index آلاینده
Not available.

عمق برف

Station Depth Elevation

Earthquake Activity

شهر Distance Mag. Time & Date
Minimum magnitude displayed is 2.5.

Coastal Water Temperatures

منطقه درجه حرارت

Nearby Weather Stations